Time;durP1;ratioP1;P1;durP2;ratioP2;P2;SDS_P1;SDS_P2;PMS_P1;PMS_P2;Temp;Humidity;BMP_temperature;BMP_pressure;BME280_temperature;BME280_humidity;BME280_pressure;Samples;Min_cycle;Max_cycle;Signal;HPM_P1;HPM_P2
2023/02/06 00:02:02;;;;;;;17.42;2.55;;;;;;;;;;5024848;28;19925;-70
2023/02/06 00:04:28;;;;;;;13.60;2.42;;;;;;;;;;4989943;28;20052;-69
2023/02/06 00:06:57;;;;;;;11.13;2.90;;;;;;;;;;5038010;28;20051;-69
2023/02/06 00:09:24;;;;;;;13.60;2.58;;;;;;;;;;5048407;28;20050;-70
2023/02/06 00:11:51;;;;;;;9.95;2.88;;;;;;;;;;5001116;28;20101;-69
2023/02/06 00:14:23;;;;;;;13.18;2.35;;;;;;;;;;5023556;28;20055;-69
2023/02/06 00:16:52;;;;;;;12.45;2.33;;;;;;;;;;4995484;28;20055;-69
2023/02/06 00:19:20;;;;;;;18.63;3.03;;;;;;;;;;5030400;28;20140;-70
2023/02/06 00:21:53;;;;;;;12.15;2.53;;;;;;;;;;4993292;28;20124;-69
2023/02/06 00:24:20;;;;;;;16.02;2.85;;;;;;;;;;5036779;28;20048;-69
2023/02/06 00:26:47;;;;;;;12.23;2.40;;;;;;;;;;5035464;28;20091;-68
2023/02/06 00:29:14;;;;;;;12.77;2.30;;;;;;;;;;5026703;28;20040;-70
2023/02/06 00:31:47;;;;;;;10.20;2.22;;;;;;;;;;5044272;28;20109;-69
2023/02/06 00:34:14;;;;;;;17.88;2.53;;;;;;;;;;5063727;28;20052;-69
2023/02/06 00:36:42;;;;;;;12.38;2.58;;;;;;;;;;5028409;28;20086;-70
2023/02/06 00:39:09;;;;;;;9.82;2.83;;;;;;;;;;5015943;28;20339;-69
2023/02/06 00:41:37;;;;;;;12.07;2.50;;;;;;;;;;5006044;28;20059;-69
2023/02/06 00:44:06;;;;;;;13.80;3.17;;;;;;;;;;5012222;28;20167;-70
2023/02/06 00:46:33;;;;;;;14.02;2.22;;;;;;;;;;5001505;28;20079;-69
2023/02/06 00:49:01;;;;;;;13.48;2.35;;;;;;;;;;5045061;28;20123;-70
2023/02/06 00:51:28;;;;;;;11.30;2.42;;;;;;;;;;5014869;28;20056;-69
2023/02/06 00:53:57;;;;;;;10.30;2.65;;;;;;;;;;5018070;28;20143;-69
2023/02/06 00:56:28;;;;;;;11.20;2.50;;;;;;;;;;4989695;28;20076;-70
2023/02/06 00:58:55;;;;;;;11.93;2.78;;;;;;;;;;5052797;28;20116;-68
2023/02/06 01:01:22;;;;;;;10.27;2.53;;;;;;;;;;5026377;28;20059;-69
2023/02/06 01:03:49;;;;;;;11.07;2.22;;;;;;;;;;5006435;28;20044;-68
2023/02/06 01:06:20;;;;;;;11.18;2.45;;;;;;;;;;5054602;28;20357;-69
2023/02/06 01:08:49;;;;;;;12.43;2.58;;;;;;;;;;5019968;28;20123;-69
2023/02/06 01:11:17;;;;;;;11.73;2.60;;;;;;;;;;5070471;28;20139;-69
2023/02/06 01:13:44;;;;;;;11.40;2.23;;;;;;;;;;5043775;28;20549;-68
2023/02/06 01:16:12;;;;;;;12.10;2.30;;;;;;;;;;4996254;28;20048;-69
2023/02/06 01:18:39;;;;;;;13.05;2.60;;;;;;;;;;5000210;28;20044;-70
2023/02/06 01:21:09;;;;;;;14.48;2.28;;;;;;;;;;5003137;28;20080;-70
2023/02/06 01:23:40;;;;;;;10.65;2.28;;;;;;;;;;5031468;28;20052;-70
2023/02/06 01:26:15;;;;;;;9.05;2.58;;;;;;;;;;5014357;28;20195;-69
2023/02/06 01:28:43;;;;;;;13.50;2.53;;;;;;;;;;5018447;28;20118;-70
2023/02/06 01:31:11;;;;;;;9.73;2.08;;;;;;;;;;5041400;28;20191;-69
2023/02/06 01:33:39;;;;;;;19.47;2.60;;;;;;;;;;5006666;28;20044;-70
2023/02/06 01:36:06;;;;;;;10.15;2.38;;;;;;;;;;5009928;28;20067;-69
2023/02/06 01:38:33;;;;;;;8.43;2.15;;;;;;;;;;5004689;28;20057;-69
2023/02/06 01:41:03;;;;;;;10.10;2.13;;;;;;;;;;4966963;28;20088;-69
2023/02/06 01:43:34;;;;;;;12.13;2.40;;;;;;;;;;4961324;28;20172;-70
2023/02/06 01:46:03;;;;;;;9.73;2.17;;;;;;;;;;4959900;28;20144;-70
2023/02/06 01:48:32;;;;;;;11.02;2.53;;;;;;;;;;4963808;28;20168;-69
2023/02/06 01:50:58;;;;;;;;;;;;;;;;;;5061490;28;20048;-71
2023/02/06 01:53:26;;;;;;;7.95;1.92;;;;;;;;;;5028255;28;19943;-69
2023/02/06 01:55:58;;;;;;;8.90;2.30;;;;;;;;;;4966677;28;20094;-71
2023/02/06 01:58:33;;;;;;;13.05;2.30;;;;;;;;;;4968761;28;20131;-69
2023/02/06 02:01:01;;;;;;;12.38;2.95;;;;;;;;;;4955236;28;20149;-69
2023/02/06 02:03:29;;;;;;;9.82;2.33;;;;;;;;;;4875277;29;20175;-70
2023/02/06 02:06:00;;;;;;;9.38;2.30;;;;;;;;;;4884736;28;20093;-70
2023/02/06 02:08:30;;;;;;;7.43;1.93;;;;;;;;;;4896312;28;20066;-70
2023/02/06 02:10:59;;;;;;;10.30;2.20;;;;;;;;;;4922774;28;20691;-71
2023/02/06 02:13:33;;;;;;;10.60;2.10;;;;;;;;;;4939488;28;20054;-70
2023/02/06 02:16:01;;;;;;;12.10;2.35;;;;;;;;;;4956383;28;20057;-70
2023/02/06 02:18:34;;;;;;;12.95;2.20;;;;;;;;;;4997648;28;20196;-71
2023/02/06 02:21:16;;;;;;;7.07;2.17;;;;;;;;;;4998203;28;20486;-70
2023/02/06 02:23:48;;;;;;;11.48;2.20;;;;;;;;;;4983406;28;20078;-71
2023/02/06 02:26:41;;;;;;;11.90;2.25;;;;;;;;;;4978903;28;20053;-70
2023/02/06 02:29:31;;;;;;;10.50;1.80;;;;;;;;;;5030405;28;20047;-70
2023/02/06 02:32:09;;;;;;;8.15;2.40;;;;;;;;;;5020768;28;20063;-70
2023/02/06 02:34:51;;;;;;;7.47;1.95;;;;;;;;;;5038223;28;20107;-69
2023/02/06 02:37:22;;;;;;;9.70;1.92;;;;;;;;;;5024492;28;20081;-71
2023/02/06 02:39:54;;;;;;;9.75;2.22;;;;;;;;;;5024114;28;20063;-70
2023/02/06 02:42:27;;;;;;;11.07;2.65;;;;;;;;;;5005008;28;20112;-69
2023/02/06 02:44:56;;;;;;;8.38;1.98;;;;;;;;;;5048444;28;20052;-71
2023/02/06 02:47:25;;;;;;;8.88;2.08;;;;;;;;;;5025872;28;20065;-71
2023/02/06 02:49:56;;;;;;;10.70;2.08;;;;;;;;;;5022876;28;20047;-69
2023/02/06 02:52:25;;;;;;;7.82;2.20;;;;;;;;;;5033679;28;20185;-71
2023/02/06 02:54:52;;;;;;;8.85;2.08;;;;;;;;;;4996647;28;20048;-71
2023/02/06 02:57:21;;;;;;;8.50;2.17;;;;;;;;;;5020070;28;20094;-71
2023/02/06 02:59:49;;;;;;;13.63;2.05;;;;;;;;;;4992358;28;20134;-69
2023/02/06 03:02:22;;;;;;;8.57;2.47;;;;;;;;;;5004268;28;20055;-71
2023/02/06 03:04:56;;;;;;;6.75;1.48;;;;;;;;;;4937875;28;20816;-71
2023/02/06 03:07:26;;;;;;;8.50;1.85;;;;;;;;;;5009336;28;20061;-71
2023/02/06 03:10:04;;;;;;;13.10;1.90;;;;;;;;;;5007658;28;20053;-70
2023/02/06 03:12:35;;;;;;;8.02;1.50;;;;;;;;;;5015332;28;20086;-70
2023/02/06 03:15:05;;;;;;;9.60;1.90;;;;;;;;;;4998249;28;20052;-70
2023/02/06 03:17:36;;;;;;;7.65;1.45;;;;;;;;;;5032662;28;20566;-70
2023/02/06 03:20:08;;;;;;;8.80;1.73;;;;;;;;;;5041168;28;20069;-72
2023/02/06 03:22:36;;;;;;;9.40;1.90;;;;;;;;;;5033634;28;20079;-71
2023/02/06 03:25:10;;;;;;;8.45;2.13;;;;;;;;;;4943576;28;20069;-70
2023/02/06 03:27:40;;;;;;;10.65;2.00;;;;;;;;;;4998285;28;20076;-71
2023/02/06 03:30:11;;;;;;;8.43;2.00;;;;;;;;;;5006848;28;20054;-70
2023/02/06 03:32:42;;;;;;;6.25;1.80;;;;;;;;;;4986489;28;20056;-71
2023/02/06 03:35:15;;;;;;;7.30;1.80;;;;;;;;;;4991915;28;20147;-71
2023/02/06 03:37:42;;;;;;;9.90;1.70;;;;;;;;;;5072902;28;20182;-71
2023/02/06 03:40:10;;;;;;;8.00;1.63;;;;;;;;;;5042827;28;20060;-70
2023/02/06 03:42:41;;;;;;;6.25;1.67;;;;;;;;;;5039828;28;20044;-70
2023/02/06 03:45:11;;;;;;;8.63;1.67;;;;;;;;;;5036367;28;20078;-70
2023/02/06 03:47:38;;;;;;;11.75;1.95;;;;;;;;;;5040055;28;20141;-70
2023/02/06 03:50:06;;;;;;;9.93;1.80;;;;;;;;;;5032903;28;20150;-70
2023/02/06 03:52:38;;;;;;;11.75;2.15;;;;;;;;;;5035733;28;20055;-71
2023/02/06 03:55:09;;;;;;;8.02;1.88;;;;;;;;;;5064592;28;20171;-70
2023/02/06 03:57:36;;;;;;;10.48;1.77;;;;;;;;;;5028364;28;20262;-71
2023/02/06 04:00:08;;;;;;;6.32;2.13;;;;;;;;;;5013205;28;20104;-71
2023/02/06 04:02:35;;;;;;;9.32;1.73;;;;;;;;;;5016925;28;20087;-71
2023/02/06 04:05:02;;;;;;;9.77;2.13;;;;;;;;;;4973051;28;20052;-70
2023/02/06 04:07:34;;;;;;;11.25;1.50;;;;;;;;;;4997869;28;20048;-70
2023/02/06 04:10:02;;;;;;;5.05;1.52;;;;;;;;;;5014297;28;20052;-70
2023/02/06 04:12:30;;;;;;;4.85;1.40;;;;;;;;;;5033530;28;20056;-70
2023/02/06 04:15:00;;;;;;;7.50;1.55;;;;;;;;;;5014681;28;20059;-70
2023/02/06 04:17:29;;;;;;;7.78;1.80;;;;;;;;;;5015149;28;20082;-70
2023/02/06 04:19:56;;;;;;;8.20;2.03;;;;;;;;;;5019037;28;20056;-70
2023/02/06 04:22:25;;;;;;;13.98;2.10;;;;;;;;;;4992411;28;20056;-70
2023/02/06 04:24:54;;;;;;;7.95;1.77;;;;;;;;;;5006929;28;20060;-70
2023/02/06 04:27:23;;;;;;;;;;;;;;;;;;5022280;28;20084;-70
2023/02/06 04:29:53;;;;;;;6.90;1.63;;;;;;;;;;5030969;28;19924;-70
2023/02/06 04:32:21;;;;;;;14.52;1.92;;;;;;;;;;5032108;28;20070;-70
2023/02/06 04:34:48;;;;;;;7.05;1.60;;;;;;;;;;5034245;28;20048;-69
2023/02/06 04:37:21;;;;;;;7.57;1.65;;;;;;;;;;5030164;28;20060;-70
2023/02/06 04:39:48;;;;;;;12.02;1.50;;;;;;;;;;5035084;28;20091;-70
2023/02/06 04:42:16;;;;;;;;;;;;;;;;;;5049646;28;20060;-70
2023/02/06 04:44:44;;;;;;;7.38;1.67;;;;;;;;;;4959272;28;20363;-70
2023/02/06 04:47:15;;;;;;;5.55;1.45;;;;;;;;;;5004144;28;20053;-70
2023/02/06 04:49:46;;;;;;;6.80;1.40;;;;;;;;;;4970573;28;20079;-70
2023/02/06 04:52:15;;;;;;;6.40;1.65;;;;;;;;;;5018282;28;20052;-68
2023/02/06 04:54:44;;;;;;;6.82;1.83;;;;;;;;;;5000328;28;20052;-71
2023/02/06 04:57:10;;;;;;;7.32;1.60;;;;;;;;;;5037439;28;20143;-70
2023/02/06 04:59:41;;;;;;;11.15;2.08;;;;;;;;;;5003209;28;20131;-69
2023/02/06 05:02:07;;;;;;;6.90;1.58;;;;;;;;;;4991759;28;20140;-70
2023/02/06 05:04:49;;;;;;;8.20;1.75;;;;;;;;;;4990795;28;20053;-70
2023/02/06 05:07:22;;;;;;;6.13;1.42;;;;;;;;;;5014297;28;20068;-70
2023/02/06 05:09:48;;;;;;;5.57;1.73;;;;;;;;;;5011848;28;20048;-69
2023/02/06 05:12:15;;;;;;;7.07;1.65;;;;;;;;;;5016181;28;20152;-69
2023/02/06 05:14:42;;;;;;;4.70;1.65;;;;;;;;;;4987250;28;20053;-69
2023/02/06 05:17:09;;;;;;;4.72;1.45;;;;;;;;;;5008126;28;20203;-70
2023/02/06 05:19:37;;;;;;;10.88;1.70;;;;;;;;;;4974494;28;20393;-68
2023/02/06 05:22:05;;;;;;;5.47;1.40;;;;;;;;;;4976379;28;20057;-70
2023/02/06 05:24:35;;;;;;;10.23;1.87;;;;;;;;;;4949911;28;20048;-69
2023/02/06 05:27:02;;;;;;;4.65;1.38;;;;;;;;;;4943114;28;20312;-70
2023/02/06 05:29:30;;;;;;;8.63;1.73;;;;;;;;;;4966667;28;20104;-69
2023/02/06 05:32:00;;;;;;;10.15;1.50;;;;;;;;;;4956374;28;20344;-69
2023/02/06 05:34:29;;;;;;;12.75;1.88;;;;;;;;;;4914404;28;20049;-68
2023/02/06 05:36:58;;;;;;;5.57;1.27;;;;;;;;;;4960045;28;20061;-69
2023/02/06 05:39:28;;;;;;;9.65;1.80;;;;;;;;;;4981768;28;20069;-70
2023/02/06 05:41:59;;;;;;;5.45;1.70;;;;;;;;;;4976131;28;20049;-69
2023/02/06 05:44:27;;;;;;;5.78;1.58;;;;;;;;;;4976077;28;20079;-68
2023/02/06 05:46:56;;;;;;;11.55;1.17;;;;;;;;;;4969720;28;20139;-69
2023/02/06 05:49:28;;;;;;;5.50;1.48;;;;;;;;;;5021561;28;20060;-69
2023/02/06 05:51:56;;;;;;;7.05;1.60;;;;;;;;;;5013240;28;20044;-70
2023/02/06 05:54:23;;;;;;;;;;;;;;;;;;4964159;28;20106;-70
2023/02/06 05:56:50;;;;;;;7.70;1.35;;;;;;;;;;5012729;28;19931;-69
2023/02/06 05:59:23;;;;;;;7.45;1.48;;;;;;;;;;5005215;28;20063;-69
2023/02/06 06:01:52;;;;;;;7.07;1.45;;;;;;;;;;5018563;28;20053;-69
2023/02/06 06:04:19;;;;;;;;;;;;;;;;;;5017262;28;20073;-69
2023/02/06 06:06:46;;;;;;;6.50;1.58;;;;;;;;;;5027196;28;20069;-68
2023/02/06 06:09:15;;;;;;;5.65;1.35;;;;;;;;;;5004204;28;20049;-70
2023/02/06 06:11:43;;;;;;;5.35;1.20;;;;;;;;;;5031293;28;21921;-69
2023/02/06 06:14:12;;;;;;;10.55;2.22;;;;;;;;;;5007700;28;20052;-68
2023/02/06 06:16:42;;;;;;;3.95;1.40;;;;;;;;;;5024512;28;20060;-72
2023/02/06 06:19:11;;;;;;;6.53;1.95;;;;;;;;;;5046468;28;20047;-72
2023/02/06 06:21:39;;;;;;;6.65;1.73;;;;;;;;;;5002396;28;20053;-72
2023/02/06 06:27:13;;;;;;;6.65;1.30;;;;;;;;;;4998631;27;20504;-71
2023/02/06 06:29:43;;;;;;;6.25;1.50;;;;;;;;;;4950284;28;20126;-70
2023/02/06 06:32:10;;;;;;;6.18;1.90;;;;;;;;;;4990333;28;20128;-70
2023/02/06 06:34:38;;;;;;;8.90;1.58;;;;;;;;;;4949133;28;20056;-71
2023/02/06 06:37:05;;;;;;;9.40;1.70;;;;;;;;;;4953062;28;20127;-71
2023/02/06 06:39:36;;;;;;;8.45;2.05;;;;;;;;;;4942307;28;20117;-71
2023/02/06 06:42:06;;;;;;;5.63;1.58;;;;;;;;;;4987345;28;20116;-71
2023/02/06 06:44:43;;;;;;;5.30;1.58;;;;;;;;;;4913254;28;20054;-71
2023/02/06 06:47:14;;;;;;;5.93;1.67;;;;;;;;;;4986813;28;20101;-70
2023/02/06 06:49:48;;;;;;;5.13;1.45;;;;;;;;;;4866066;28;21474;-71
2023/02/06 06:52:19;;;;;;;4.28;1.52;;;;;;;;;;4863171;28;20060;-70
2023/02/06 06:54:48;;;;;;;5.28;1.40;;;;;;;;;;4921599;28;20543;-71
2023/02/06 06:57:17;;;;;;;7.78;1.80;;;;;;;;;;4955369;28;20051;-72
2023/02/06 06:59:59;;;;;;;8.05;1.92;;;;;;;;;;4958326;28;20049;-70
2023/02/06 07:09:08;;;;;;;7.95;1.70;;;;;;;;;;5065336;27;20142;-69
2023/02/06 07:11:35;;;;;;;10.68;2.42;;;;;;;;;;4966177;28;20268;-68
2023/02/06 07:14:05;;;;;;;10.27;2.15;;;;;;;;;;4965325;28;20049;-68
2023/02/06 07:16:34;;;;;;;7.88;1.77;;;;;;;;;;4960441;28;20110;-72
2023/02/06 07:19:09;;;;;;;6.18;1.73;;;;;;;;;;4961491;28;20059;-72
2023/02/06 07:27:11;;;;;;;7.45;1.83;;;;;;;;;;4998513;28;20518;-69
2023/02/06 07:29:47;;;;;;;5.80;1.83;;;;;;;;;;4949705;28;20057;-69
2023/02/06 07:32:16;;;;;;;6.93;1.88;;;;;;;;;;4924675;28;20214;-69
2023/02/06 07:34:43;;;;;;;6.78;1.73;;;;;;;;;;4937537;28;20046;-69
2023/02/06 07:37:10;;;;;;;6.78;2.00;;;;;;;;;;4937293;28;20108;-69
2023/02/06 07:39:40;;;;;;;5.40;1.67;;;;;;;;;;4940658;28;20061;-72
2023/02/06 07:42:10;;;;;;;6.32;1.90;;;;;;;;;;4958642;28;20061;-70
2023/02/06 07:44:47;;;;;;;6.43;1.48;;;;;;;;;;4939117;28;20141;-71
2023/02/06 07:47:17;;;;;;;4.20;1.60;;;;;;;;;;4938497;28;20042;-70
2023/02/06 07:49:47;;;;;;;5.40;1.73;;;;;;;;;;4936113;28;20076;-70
2023/02/06 07:52:15;;;;;;;5.57;1.48;;;;;;;;;;4933433;28;20061;-70
2023/02/06 07:54:44;;;;;;;10.02;1.90;;;;;;;;;;4899109;28;20051;-70
2023/02/06 07:57:20;;;;;;;9.30;1.88;;;;;;;;;;4834897;29;20072;-71
2023/02/06 07:59:50;;;;;;;7.32;1.88;;;;;;;;;;4855720;29;20059;-70
2023/02/06 08:02:19;;;;;;;6.53;1.77;;;;;;;;;;4866685;28;20059;-70
2023/02/06 08:04:46;;;;;;;5.72;1.73;;;;;;;;;;4873425;28;20055;-70
2023/02/06 08:07:15;;;;;;;6.90;2.00;;;;;;;;;;4966259;28;20055;-69
2023/02/06 08:09:44;;;;;;;6.15;1.80;;;;;;;;;;4942034;28;20064;-70
2023/02/06 08:12:14;;;;;;;7.45;1.95;;;;;;;;;;4942772;28;20056;-70
2023/02/06 08:14:46;;;;;;;7.35;2.35;;;;;;;;;;4912663;28;20193;-71
2023/02/06 08:17:22;;;;;;;6.10;2.08;;;;;;;;;;4939416;28;20174;-70
2023/02/06 08:19:57;;;;;;;5.97;1.88;;;;;;;;;;4954539;28;20058;-70
2023/02/06 08:22:25;;;;;;;5.07;1.40;;;;;;;;;;4944033;28;20128;-70
2023/02/06 08:24:52;;;;;;;5.18;1.80;;;;;;;;;;4923877;28;20086;-70
2023/02/06 08:27:23;;;;;;;8.80;2.03;;;;;;;;;;4931683;28;20166;-70
2023/02/06 08:29:58;;;;;;;4.15;1.50;;;;;;;;;;4965937;28;20045;-70
2023/02/06 08:32:32;;;;;;;6.65;1.95;;;;;;;;;;4945926;28;20058;-70
2023/02/06 08:34:59;;;;;;;6.45;1.90;;;;;;;;;;4898697;28;20057;-70
2023/02/06 08:37:32;;;;;;;5.05;2.03;;;;;;;;;;4879882;28;20139;-70
2023/02/06 08:40:00;;;;;;;10.32;2.10;;;;;;;;;;4906545;28;20063;-69
2023/02/06 08:42:32;;;;;;;8.80;2.28;;;;;;;;;;4931114;28;20132;-69
2023/02/06 08:45:30;;;;;;;6.82;1.77;;;;;;;;;;4906153;28;20055;-70
2023/02/06 08:48:03;;;;;;;7.55;1.83;;;;;;;;;;4863617;29;20054;-70
2023/02/06 08:50:43;;;;;;;7.18;2.00;;;;;;;;;;4902602;28;20057;-69
2023/02/06 08:53:10;;;;;;;9.10;2.10;;;;;;;;;;4937723;28;20136;-70
2023/02/06 08:55:37;;;;;;;5.65;1.95;;;;;;;;;;4906945;28;20055;-70
2023/02/06 08:58:06;;;;;;;7.57;2.00;;;;;;;;;;4919704;28;20066;-72
2023/02/06 09:00:41;;;;;;;4.85;1.70;;;;;;;;;;4919875;28;20333;-68
2023/02/06 09:03:11;;;;;;;8.15;1.98;;;;;;;;;;4906223;28;20134;-71
2023/02/06 09:05:39;;;;;;;7.57;2.53;;;;;;;;;;4884220;28;20232;-71
2023/02/06 09:08:10;;;;;;;;;;;;;;;;;;4930585;28;20050;-71
2023/02/06 09:10:39;;;;;;;4.47;1.77;;;;;;;;;;4939063;28;19929;-71
2023/02/06 09:13:06;;;;;;;7.90;2.08;;;;;;;;;;4927113;28;20055;-70
2023/02/06 09:15:40;;;;;;;8.48;2.20;;;;;;;;;;4905971;28;20058;-70
2023/02/06 09:18:07;;;;;;;6.00;2.10;;;;;;;;;;4932735;28;20074;-71
2023/02/06 09:20:44;;;;;;;5.68;1.73;;;;;;;;;;4919703;28;20054;-70
2023/02/06 09:23:11;;;;;;;10.88;2.00;;;;;;;;;;4926115;28;20050;-71
2023/02/06 09:25:38;;;;;;;7.30;2.22;;;;;;;;;;4901357;28;20072;-69
2023/02/06 09:28:09;;;;;;;7.75;2.55;;;;;;;;;;4906883;28;20059;-70
2023/02/06 09:30:40;;;;;;;6.40;2.22;;;;;;;;;;4903469;29;20039;-70
2023/02/06 09:33:10;;;;;;;11.60;2.00;;;;;;;;;;4896862;29;20059;-71
2023/02/06 09:35:40;;;;;;;9.30;2.30;;;;;;;;;;4866084;29;20055;-67
2023/02/06 09:38:07;;;;;;;6.05;1.90;;;;;;;;;;4903073;28;20051;-67
2023/02/06 09:40:35;;;;;;;5.93;2.10;;;;;;;;;;4921511;28;20058;-67
2023/02/06 09:43:04;;;;;;;8.00;2.20;;;;;;;;;;4950625;28;20054;-67
2023/02/06 09:45:32;;;;;;;8.15;2.03;;;;;;;;;;4903919;28;20050;-68
2023/02/06 09:48:00;;;;;;;8.02;2.00;;;;;;;;;;4949486;28;20058;-67
2023/02/06 09:50:30;;;;;;;6.95;2.20;;;;;;;;;;4945949;28;20366;-68
2023/02/06 09:53:11;;;;;;;10.13;2.15;;;;;;;;;;4939233;28;20108;-69
2023/02/06 09:55:48;;;;;;;9.23;2.35;;;;;;;;;;4917215;28;20073;-68
2023/02/06 09:58:22;;;;;;;7.68;2.15;;;;;;;;;;4863131;29;20087;-69
2023/02/06 10:00:55;;;;;;;8.18;1.98;;;;;;;;;;4912443;28;20054;-68
2023/02/06 10:03:35;;;;;;;10.50;2.40;;;;;;;;;;4896126;28;20063;-68
2023/02/06 10:06:08;;;;;;;5.10;2.03;;;;;;;;;;4901856;28;20072;-68
2023/02/06 10:08:42;;;;;;;7.43;2.33;;;;;;;;;;4865384;29;20733;-68
2023/02/06 10:11:28;;;;;;;7.35;2.35;;;;;;;;;;4872194;29;20116;-68
2023/02/06 10:14:17;;;;;;;7.82;2.35;;;;;;;;;;4876296;29;20052;-68
2023/02/06 10:16:49;;;;;;;6.55;1.85;;;;;;;;;;4863966;28;20117;-68
2023/02/06 10:19:48;;;;;;;7.15;2.00;;;;;;;;;;4896701;28;20246;-69
2023/02/06 10:22:23;;;;;;;14.68;2.35;;;;;;;;;;4936897;28;20094;-68
2023/02/06 10:24:54;;;;;;;10.30;2.22;;;;;;;;;;4938818;28;20142;-68
2023/02/06 10:27:23;;;;;;;5.95;1.88;;;;;;;;;;4919739;28;20077;-70
2023/02/06 10:30:00;;;;;;;9.05;2.30;;;;;;;;;;4909769;28;20085;-68
2023/02/06 10:32:46;;;;;;;6.57;1.98;;;;;;;;;;4936712;28;20054;-68
2023/02/06 10:35:19;;;;;;;7.50;2.22;;;;;;;;;;4949307;28;20124;-67
2023/02/06 10:38:01;;;;;;;11.07;2.00;;;;;;;;;;4926985;28;20050;-68
2023/02/06 10:40:38;;;;;;;9.52;2.30;;;;;;;;;;4926154;28;20121;-68
2023/02/06 10:46:02;;;;;;;7.35;2.17;;;;;;;;;;4927492;28;20109;-67
2023/02/06 10:48:35;;;;;;;7.15;2.38;;;;;;;;;;4946501;28;20114;-68
2023/02/06 10:51:11;;;;;;;8.68;1.95;;;;;;;;;;4919453;28;20081;-68
2023/02/06 10:53:40;;;;;;;7.20;2.33;;;;;;;;;;4941255;28;20050;-67
2023/02/06 10:56:09;;;;;;;9.70;1.83;;;;;;;;;;4902799;28;20118;-67
2023/02/06 10:58:40;;;;;;;7.93;1.88;;;;;;;;;;4899018;28;20070;-68
2023/02/06 11:01:11;;;;;;;9.38;1.92;;;;;;;;;;4905794;28;20064;-68
2023/02/06 11:03:47;;;;;;;11.65;2.17;;;;;;;;;;4893284;28;20125;-68
2023/02/06 11:06:19;;;;;;;11.52;2.40;;;;;;;;;;4865389;28;29116;-66
2023/02/06 11:08:53;;;;;;;11.18;2.22;;;;;;;;;;4909758;28;20284;-67
2023/02/06 11:11:23;;;;;;;10.55;2.22;;;;;;;;;;4911171;28;20133;-67
2023/02/06 11:13:51;;;;;;;6.63;1.80;;;;;;;;;;4924113;28;20054;-66
2023/02/06 11:16:24;;;;;;;6.20;2.03;;;;;;;;;;4909536;28;20104;-66
2023/02/06 11:19:06;;;;;;;11.05;2.28;;;;;;;;;;4917009;28;20124;-66
2023/02/06 11:21:50;;;;;;;10.57;2.20;;;;;;;;;;4900771;28;20055;-66
2023/02/06 11:24:20;;;;;;;6.70;1.85;;;;;;;;;;4915947;28;21580;-66
2023/02/06 11:26:52;;;;;;;12.05;1.92;;;;;;;;;;4899641;28;20059;-67
2023/02/06 11:29:34;;;;;;;9.88;2.33;;;;;;;;;;4914992;28;20050;-67
2023/02/06 11:32:02;;;;;;;8.82;1.98;;;;;;;;;;4899487;29;20051;-67
2023/02/06 11:34:44;;;;;;;8.82;2.15;;;;;;;;;;4881287;29;20143;-67
2023/02/06 11:40:41;;;;;;;14.07;3.42;;;;;;;;;;4925913;28;20054;-67
2023/02/06 12:23:55;;;;;;;18.33;1.90;;;;;;;;;;5036244;27;20140;-67
2023/02/06 12:26:23;;;;;;;7.38;2.10;;;;;;;;;;4974768;28;20123;-67
2023/02/06 12:28:58;;;;;;;6.30;1.40;;;;;;;;;;5000887;28;20159;-66
2023/02/06 12:31:32;;;;;;;7.90;2.00;;;;;;;;;;5009925;28;20076;-68
2023/02/06 12:34:06;;;;;;;10.52;2.05;;;;;;;;;;4993015;28;20042;-67
2023/02/06 12:36:37;;;;;;;8.43;1.88;;;;;;;;;;4970192;28;20513;-67
2023/02/06 12:39:18;;;;;;;3.70;1.30;;;;;;;;;;4959202;28;20042;-67
2023/02/06 12:41:57;;;;;;;6.82;1.77;;;;;;;;;;4960945;28;20077;-67
2023/02/06 12:44:41;;;;;;;8.95;1.70;;;;;;;;;;4983598;28;20046;-67
2023/02/06 12:47:35;;;;;;;6.35;1.65;;;;;;;;;;4943777;28;20615;-68
2023/02/06 12:51:10;;;;;;;;;;;;;;;;;;;;;
2023/02/06 13:26:50;;;;;;;7.55;1.55;;;;;;;;;;6118742;23;20029;-66
2023/02/06 13:29:32;;;;;;;6.68;1.70;;;;;;;;;;6080821;23;20022;-68
2023/02/06 13:32:30;;;;;;;9.68;1.50;;;;;;;;;;6045150;23;20093;-66
2023/02/06 13:35:11;;;;;;;;;;;;;;;;;;;;;
2023/02/06 13:37:40;;;;;;;8.45;1.50;;;;;;;;;;6025958;23;20197;-67
2023/02/06 13:40:36;;;;;;;9.35;1.52;;;;;;;;;;6038802;23;20092;-67
2023/02/06 13:43:12;;;;;;;6.78;1.40;;;;;;;;;;6033096;23;20196;-66
2023/02/06 13:51:50;;;;;;;9.00;1.88;;;;;;;;;;5877804;24;20020;-67
2023/02/06 14:14:13;;;;;;;;;;;;;;;;;;;;;
2023/02/06 14:43:34;;;;;;;10.50;1.33;;;;;;;;;;6164919;22;3547468;-71
2023/02/06 14:46:12;;;;;;;6.65;1.30;;;;;;;;;;6119297;22;20099;-70
2023/02/06 14:48:40;;;;;;;6.90;1.10;;;;;;;;;;6126594;23;20029;-70
2023/02/06 14:51:15;;;;;;;8.27;1.30;;;;;;;;;;6075031;23;20029;-70
2023/02/06 14:53:52;;;;;;;7.25;1.38;;;;;;;;;;6013150;23;20250;-70
2023/02/06 14:56:28;;;;;;;11.90;1.60;;;;;;;;;;5981910;23;20037;-71
2023/02/06 15:02:12;;;;;;;8.90;1.42;;;;;;;;;;5048281;27;20410;-68
2023/02/06 15:04:45;;;;;;;7.63;1.15;;;;;;;;;;5010329;28;20053;-70
2023/02/06 15:07:20;;;;;;;7.25;1.33;;;;;;;;;;5026984;28;20144;-69
2023/02/06 15:09:54;;;;;;;5.97;1.25;;;;;;;;;;4945891;28;20041;-68
2023/02/06 15:12:23;;;;;;;7.97;0.98;;;;;;;;;;5012316;28;20143;-68
2023/02/06 15:15:01;;;;;;;4.72;0.70;;;;;;;;;;4973101;28;20060;-69
2023/02/06 15:17:33;;;;;;;6.72;1.20;;;;;;;;;;4955987;28;20099;-69
2023/02/06 15:20:23;;;;;;;4.50;1.00;;;;;;;;;;4965202;28;20054;-68
2023/02/06 15:22:52;;;;;;;6.30;0.88;;;;;;;;;;4987802;28;20053;-69
2023/02/06 15:25:31;;;;;;;5.82;1.20;;;;;;;;;;4988184;28;20061;-69
2023/02/06 15:28:02;;;;;;;12.32;1.25;;;;;;;;;;5024181;28;20110;-69
2023/02/06 15:30:29;;;;;;;5.00;1.15;;;;;;;;;;4940878;28;20072;-68
2023/02/06 15:33:08;;;;;;;8.38;1.45;;;;;;;;;;4957560;28;20050;-68
2023/02/06 15:35:36;;;;;;;12.02;1.00;;;;;;;;;;4996143;28;20057;-68
2023/02/06 15:38:10;;;;;;;8.13;1.30;;;;;;;;;;5013278;28;20136;-69
2023/02/06 15:40:40;;;;;;;5.32;1.20;;;;;;;;;;5030040;28;20349;-68
2023/02/06 15:43:20;;;;;;;;;;;;;;;;;;;;;
2023/02/06 15:45:50;;;;;;;2.33;0.68;;;;;;;;;;5046804;28;20129;-67
2023/02/06 15:48:23;;;;;;;6.65;1.20;;;;;;;;;;5021143;28;20206;-67
2023/02/06 15:50:57;;;;;;;4.63;1.05;;;;;;;;;;4986003;28;20052;-67
2023/02/06 15:53:32;;;;;;;6.63;1.20;;;;;;;;;;5001135;28;20059;-68
2023/02/06 15:55:59;;;;;;;6.95;1.00;;;;;;;;;;5002027;28;20056;-68
2023/02/06 15:58:28;;;;;;;5.85;1.23;;;;;;;;;;4996714;28;20053;-67
2023/02/06 16:00:56;;;;;;;4.63;1.10;;;;;;;;;;5020820;28;20046;-67
2023/02/06 16:03:29;;;;;;;10.68;1.35;;;;;;;;;;5015121;28;20053;-69
2023/02/06 16:05:56;;;;;;;5.03;1.30;;;;;;;;;;5023076;28;20120;-67
2023/02/06 16:08:29;;;;;;;8.00;1.35;;;;;;;;;;5025635;28;20053;-68
2023/02/06 16:10:59;;;;;;;5.65;1.33;;;;;;;;;;4996401;28;20057;-67
2023/02/06 16:13:28;;;;;;;5.65;0.95;;;;;;;;;;4956795;28;20049;-69
2023/02/06 16:16:02;;;;;;;7.80;1.10;;;;;;;;;;4982453;28;20133;-67
2023/02/06 16:18:32;;;;;;;9.93;1.27;;;;;;;;;;4970076;28;20443;-66
2023/02/06 16:21:14;;;;;;;4.93;1.42;;;;;;;;;;4988569;28;20127;-66
2023/02/06 16:23:44;;;;;;;9.48;1.10;;;;;;;;;;4992169;28;20359;-66
2023/02/06 16:26:16;;;;;;;10.20;1.63;;;;;;;;;;4997297;28;20051;-66
2023/02/06 16:28:48;;;;;;;7.10;1.70;;;;;;;;;;5006883;28;20136;-66
2023/02/06 16:31:19;;;;;;;9.27;1.20;;;;;;;;;;4973314;28;20423;-66
2023/02/06 16:33:50;;;;;;;10.10;1.27;;;;;;;;;;4972632;28;20999;-66
2023/02/06 16:36:17;;;;;;;4.90;1.30;;;;;;;;;;4990790;28;20046;-66
2023/02/06 16:38:44;;;;;;;6.85;1.50;;;;;;;;;;4993152;28;20062;-66
2023/02/06 16:41:26;;;;;;;10.88;1.45;;;;;;;;;;4994948;28;20052;-66
2023/02/06 16:43:57;;;;;;;4.45;0.98;;;;;;;;;;4990362;28;20070;-66
2023/02/06 16:46:24;;;;;;;5.60;1.25;;;;;;;;;;4975142;28;20055;-66
2023/02/06 16:48:55;;;;;;;4.10;0.95;;;;;;;;;;4994738;28;20568;-66
2023/02/06 16:51:24;;;;;;;4.40;0.95;;;;;;;;;;4944119;28;20140;-69
2023/02/06 16:53:50;;;;;;;;;;;;;;;;;;5031122;28;20467;-66
2023/02/06 16:56:25;;;;;;;4.30;1.10;;;;;;;;;;4984971;28;19925;-70
2023/02/06 18:53:40;;;;;;;10.55;2.95;;;;;;;;;;5061010;27;20506;-76
2023/02/06 18:56:34;;;;;;;11.88;3.40;;;;;;;;;;4943197;28;20058;-76
